Terminal Aerodrome Forecast
Issued by NWS

Home | Current Version | Previous Version | Graphics & Text | Print | Product List | Glossary On
Versions: 1 2 3 4 5 6 7 8 9 10 11 12 13 14 15 16 17
000
FTUS43 KOAX 291700 RRA
TAFCDR
TAF
KCDR 291743Z 2918/3018 07009KT 5SM -RA BR OVC006
     FM292000 05009KT P6SM BKN009
     FM300100 13015G25KT 5SM -TSRA BKN015 OVC030CB
     FM300300 14019G27KT 3SM TSRA OVC009CB
     FM300800 26023G33KT 5SM -RA OVC009=

USA.gov is the U.S. government's official web portal to all federal, state and local government web resources and services.